EXS85U GCTS-EGNT
Flight info
| Callsign | EXS85U |
|---|---|
| Flight time | 4h 11m |
| Altitude | 38000 |
| Route | BIMB1W BIMBO DCT RAKUN DCT MANOX/M079F370 T13 OMOKO DCT GUNSO/N0453F370 DCT BIBLA DCT BUNED DCT LIFFY UL975 ROLEX DCT GOKOV |
| Aircraft | B738/M-SDE2E3FGHIRWXY/LB1 |
Departure
| Time | 2026-05-05 20:16 |
|---|---|
| Airport | Tenerife Sur Airport (GCTS) |
Arrival
| Time | 2026-05-06 00:27 |
|---|---|
| Airport | Newcastle International Airport (EGNT) |
| Time | Latitude | Longitude | Altitude | Speed | Heading |
|---|---|---|---|---|---|
| 2026-05-05 19:36 | 28.04448 | -16.57984 | 222 ft | 0 kts | 339° |
| 2026-05-05 20:12 | 28.04454 | -16.57987 | 223 ft | 3 kts | 339° |
| 2026-05-05 20:12 | 28.04491 | -16.58012 | 223 ft | 10 kts | 310° |
| 2026-05-05 20:12 | 28.04474 | -16.58106 | 224 ft | 16 kts | 250° |
| 2026-05-05 20:12 | 28.04428 | -16.58203 | 223 ft | 12 kts | 206° |
| 2026-05-05 20:13 | 28.04347 | -16.58189 | 221 ft | 12 kts | 162° |
| 2026-05-05 20:13 | 28.04286 | -16.58235 | 222 ft | 12 kts | 249° |
| 2026-05-05 20:13 | 28.04256 | -16.58321 | 222 ft | 12 kts | 249° |
| 2026-05-05 20:13 | 28.04227 | -16.58404 | 223 ft | 11 kts | 248° |
| 2026-05-05 20:14 | 28.04199 | -16.58485 | 222 ft | 11 kts | 248° |
| 2026-05-05 20:14 | 28.04178 | -16.58571 | 222 ft | 13 kts | 258° |
| 2026-05-05 20:14 | 28.04139 | -16.58681 | 220 ft | 19 kts | 247° |
| 2026-05-05 20:14 | 28.04084 | -16.58843 | 210 ft | 14 kts | 248° |
| 2026-05-05 20:15 | 28.04001 | -16.58864 | 212 ft | 14 kts | 147° |
| 2026-05-05 20:15 | 28.03946 | -16.58750 | 197 ft | 18 kts | 116° |
| 2026-05-05 20:15 | 28.03967 | -16.58626 | 203 ft | 16 kts | 69° |
| 2026-05-05 20:15 | 28.04047 | -16.58392 | 200 ft | 62 kts | 69° |
| 2026-05-05 20:16 | 28.04293 | -16.57692 | 200 ft | 127 kts | 68° |
| 2026-05-05 20:16 | 28.04681 | -16.56592 | 323 ft | 165 kts | 71° |
| 2026-05-05 20:16 | 28.05092 | -16.55345 | 950 ft | 177 kts | 71° |
| 2026-05-05 20:16 | 28.05513 | -16.54006 | 1740 ft | 182 kts | 68° |
| 2026-05-05 20:17 | 28.05939 | -16.52616 | 2335 ft | 198 kts | 66° |
| 2026-05-05 20:17 | 28.06491 | -16.51130 | 2648 ft | 215 kts | 64° |
| 2026-05-05 20:17 | 28.07100 | -16.49492 | 2870 ft | 237 kts | 65° |
| 2026-05-05 20:17 | 28.07752 | -16.47684 | 3163 ft | 258 kts | 66° |
| 2026-05-05 20:18 | 28.08422 | -16.45794 | 3972 ft | 258 kts | 67° |
| 2026-05-05 20:18 | 28.09188 | -16.43949 | 4771 ft | 261 kts | 52° |
| 2026-05-05 20:18 | 28.10655 | -16.42746 | 5413 ft | 268 kts | 17° |
| 2026-05-05 20:18 | 28.12518 | -16.42483 | 6142 ft | 272 kts | 4° |
| 2026-05-05 20:19 | 28.14428 | -16.42310 | 6870 ft | 278 kts | 4° |
| 2026-05-05 20:19 | 28.16370 | -16.42119 | 7551 ft | 283 kts | 3° |
| 2026-05-05 20:19 | 28.18329 | -16.41918 | 8255 ft | 287 kts | 2° |
| 2026-05-05 20:19 | 28.20337 | -16.41705 | 8951 ft | 292 kts | 3° |
| 2026-05-05 20:20 | 28.22374 | -16.41484 | 9688 ft | 296 kts | 3° |
| 2026-05-05 20:20 | 28.24432 | -16.41256 | 10352 ft | 301 kts | 2° |
| 2026-05-05 20:20 | 28.26600 | -16.41015 | 10550 ft | 324 kts | 3° |
| 2026-05-05 20:20 | 28.28920 | -16.40756 | 10715 ft | 345 kts | 3° |
| 2026-05-05 20:21 | 28.31360 | -16.40479 | 11064 ft | 359 kts | 3° |
| 2026-05-05 20:21 | 28.33880 | -16.40188 | 11633 ft | 365 kts | 3° |
| 2026-05-05 20:21 | 28.36387 | -16.39897 | 12243 ft | 369 kts | 2° |
| 2026-05-05 20:21 | 28.38966 | -16.39597 | 12821 ft | 376 kts | 2° |
| 2026-05-05 20:22 | 28.41593 | -16.39291 | 13461 ft | 379 kts | 2° |
| 2026-05-05 20:22 | 28.44237 | -16.38983 | 14062 ft | 384 kts | 1° |
| 2026-05-05 20:22 | 28.46913 | -16.38672 | 14575 ft | 389 kts | 1° |
| 2026-05-05 20:22 | 28.49613 | -16.38358 | 15174 ft | 392 kts | 1° |
| 2026-05-05 20:23 | 28.52335 | -16.38040 | 15764 ft | 395 kts | 1° |
| 2026-05-05 20:23 | 28.55080 | -16.37720 | 16410 ft | 396 kts | 1° |
| 2026-05-05 20:23 | 28.57833 | -16.37398 | 17032 ft | 399 kts | 0° |
| 2026-05-05 20:23 | 28.60607 | -16.37076 | 17555 ft | 403 kts | 0° |
| 2026-05-05 20:24 | 28.63422 | -16.36748 | 18078 ft | 408 kts | 0° |
| 2026-05-05 20:24 | 28.66258 | -16.36418 | 18598 ft | 411 kts | 360° |
| 2026-05-05 20:24 | 28.69083 | -16.36088 | 19057 ft | 415 kts | 360° |
| 2026-05-05 20:24 | 28.71972 | -16.35751 | 19488 ft | 420 kts | 359° |
| 2026-05-05 20:25 | 28.74892 | -16.35410 | 19936 ft | 424 kts | 359° |
| 2026-05-05 20:25 | 28.77838 | -16.35066 | 20380 ft | 428 kts | 359° |
| 2026-05-05 20:25 | 28.80823 | -16.34717 | 20814 ft | 432 kts | 359° |
| 2026-05-05 20:25 | 28.83830 | -16.34365 | 21268 ft | 436 kts | 359° |
| 2026-05-05 20:26 | 28.86856 | -16.34010 | 21737 ft | 439 kts | 359° |
| 2026-05-05 20:26 | 28.89908 | -16.33652 | 22154 ft | 443 kts | 359° |
| 2026-05-05 20:26 | 28.92989 | -16.33291 | 22550 ft | 447 kts | 359° |
| 2026-05-05 20:26 | 28.96099 | -16.32926 | 22950 ft | 451 kts | 359° |
| 2026-05-05 20:27 | 28.99235 | -16.32558 | 23358 ft | 455 kts | 358° |
| 2026-05-05 20:27 | 29.02391 | -16.32187 | 23726 ft | 458 kts | 358° |
| 2026-05-05 20:27 | 29.05576 | -16.31812 | 24053 ft | 461 kts | 358° |
| 2026-05-05 20:27 | 29.08775 | -16.31435 | 24426 ft | 464 kts | 358° |
| 2026-05-05 20:28 | 29.11992 | -16.31054 | 24913 ft | 462 kts | 360° |
| 2026-05-05 20:28 | 29.15168 | -16.30675 | 25510 ft | 459 kts | 360° |
| 2026-05-05 20:28 | 29.18367 | -16.30297 | 25710 ft | 465 kts | 360° |
| 2026-05-05 20:28 | 29.21600 | -16.29919 | 25929 ft | 471 kts | 360° |
| 2026-05-05 20:29 | 29.24867 | -16.29535 | 26259 ft | 473 kts | 359° |
| 2026-05-05 20:29 | 29.28101 | -16.29153 | 26613 ft | 474 kts | 359° |
| 2026-05-05 20:29 | 29.31398 | -16.28763 | 26928 ft | 477 kts | 359° |
| 2026-05-05 20:29 | 29.34705 | -16.28372 | 27219 ft | 480 kts | 359° |
| 2026-05-05 20:30 | 29.38040 | -16.27977 | 27506 ft | 483 kts | 359° |
| 2026-05-05 20:30 | 29.41362 | -16.27582 | 28139 ft | 476 kts | 0° |
| 2026-05-05 20:30 | 29.44649 | -16.27188 | 28620 ft | 475 kts | 0° |
| 2026-05-05 20:30 | 29.47963 | -16.26795 | 28775 ft | 481 kts | 0° |
| 2026-05-05 20:31 | 29.51305 | -16.26401 | 28952 ft | 485 kts | 0° |
| 2026-05-05 20:31 | 29.54670 | -16.26003 | 29239 ft | 487 kts | 0° |
| 2026-05-05 20:31 | 29.58047 | -16.25602 | 29560 ft | 488 kts | 0° |
| 2026-05-05 20:31 | 29.61436 | -16.25198 | 29822 ft | 490 kts | 0° |
| 2026-05-05 20:32 | 29.64832 | -16.24794 | 30083 ft | 492 kts | 0° |
| 2026-05-05 20:32 | 29.68244 | -16.24387 | 30356 ft | 493 kts | 0° |
| 2026-05-05 20:32 | 29.71654 | -16.23980 | 30664 ft | 492 kts | 360° |
| 2026-05-05 20:32 | 29.75056 | -16.23573 | 30950 ft | 492 kts | 360° |
| 2026-05-05 20:33 | 29.78475 | -16.23165 | 31188 ft | 493 kts | 359° |
| 2026-05-05 20:33 | 29.81888 | -16.22758 | 31438 ft | 494 kts | 359° |
| 2026-05-05 20:33 | 29.85265 | -16.22354 | 31710 ft | 494 kts | 359° |
| 2026-05-05 20:33 | 29.88683 | -16.21945 | 31983 ft | 494 kts | 359° |
| 2026-05-05 20:34 | 29.92104 | -16.21536 | 32224 ft | 495 kts | 359° |
| 2026-05-05 20:34 | 29.95523 | -16.21127 | 32548 ft | 493 kts | 360° |
| 2026-05-05 20:34 | 29.98890 | -16.20719 | 33244 ft | 483 kts | 359° |
| 2026-05-05 20:34 | 30.02234 | -16.20315 | 33476 ft | 485 kts | 359° |
| 2026-05-05 20:35 | 30.05609 | -16.19913 | 33503 ft | 490 kts | 359° |
| 2026-05-05 20:35 | 30.09011 | -16.19510 | 33631 ft | 492 kts | 359° |
| 2026-05-05 20:35 | 30.12417 | -16.19102 | 33917 ft | 492 kts | 359° |
| 2026-05-05 20:35 | 30.15820 | -16.18692 | 34196 ft | 490 kts | 359° |
| 2026-05-05 20:36 | 30.19212 | -16.18282 | 34405 ft | 490 kts | 359° |
| 2026-05-05 20:36 | 30.22606 | -16.17873 | 34602 ft | 490 kts | 359° |
| 2026-05-05 20:36 | 30.24889 | -16.17597 | 34917 ft | 486 kts | 360° |
| 2026-05-05 20:36 | 30.28218 | -16.17191 | 35422 ft | 478 kts | 359° |
| 2026-05-05 20:37 | 30.31523 | -16.16790 | 35596 ft | 479 kts | 359° |
| 2026-05-05 20:37 | 30.38153 | -16.15997 | 35719 ft | 485 kts | 359° |
| 2026-05-05 20:37 | 30.41511 | -16.15593 | 35946 ft | 484 kts | 359° |
| 2026-05-05 20:38 | 30.44857 | -16.15188 | 36082 ft | 485 kts | 359° |
| 2026-05-05 20:38 | 30.51600 | -16.14374 | 36094 ft | 488 kts | 0° |
| 2026-05-05 20:39 | 30.58259 | -16.13560 | 36059 ft | 474 kts | 0° |
| 2026-05-05 20:39 | 30.64792 | -16.12764 | 36074 ft | 471 kts | 0° |
| 2026-05-05 20:40 | 30.71303 | -16.11976 | 36069 ft | 470 kts | 0° |
| 2026-05-05 20:40 | 30.77805 | -16.11187 | 36079 ft | 470 kts | 0° |
| 2026-05-05 20:41 | 30.84317 | -16.10394 | 36077 ft | 471 kts | 1° |
| 2026-05-05 20:41 | 30.90835 | -16.09598 | 36078 ft | 471 kts | 1° |
| 2026-05-05 20:42 | 30.97350 | -16.08802 | 36068 ft | 471 kts | 1° |
| 2026-05-05 20:42 | 31.03871 | -16.08003 | 36073 ft | 471 kts | 1° |
| 2026-05-05 20:43 | 31.10391 | -16.07204 | 36080 ft | 471 kts | 1° |
| 2026-05-05 20:43 | 31.16862 | -16.06410 | 36077 ft | 470 kts | 1° |
| 2026-05-05 20:44 | 31.23363 | -16.05610 | 36072 ft | 469 kts | 1° |
| 2026-05-05 20:44 | 31.29850 | -16.04811 | 36072 ft | 468 kts | 1° |
| 2026-05-05 20:45 | 31.39543 | -16.03616 | 36081 ft | 466 kts | 2° |
| 2026-05-05 20:45 | 31.45998 | -16.02835 | 36075 ft | 465 kts | 1° |
| 2026-05-05 20:46 | 31.52436 | -16.02096 | 36079 ft | 465 kts | 1° |
| 2026-05-05 20:46 | 31.58874 | -16.01361 | 36080 ft | 464 kts | 1° |
| 2026-05-05 20:47 | 31.65299 | -16.00622 | 36086 ft | 464 kts | 1° |
| 2026-05-05 20:47 | 31.71722 | -15.99878 | 36076 ft | 464 kts | 1° |
| 2026-05-05 20:48 | 31.78148 | -15.99132 | 36077 ft | 464 kts | 1° |
| 2026-05-05 20:48 | 31.84527 | -15.98391 | 36086 ft | 464 kts | 1° |
| 2026-05-05 20:49 | 31.90950 | -15.97643 | 36092 ft | 464 kts | 1° |
| 2026-05-05 20:49 | 31.97377 | -15.96894 | 36087 ft | 465 kts | 1° |
| 2026-05-05 20:50 | 32.03816 | -15.96143 | 36093 ft | 465 kts | 1° |
| 2026-05-05 20:50 | 32.10255 | -15.95391 | 36093 ft | 465 kts | 1° |
| 2026-05-05 20:51 | 32.16695 | -15.94637 | 36104 ft | 466 kts | 1° |
| 2026-05-05 20:51 | 32.23143 | -15.93881 | 36100 ft | 466 kts | 1° |
| 2026-05-05 20:52 | 32.29602 | -15.93123 | 36102 ft | 466 kts | 1° |
| 2026-05-05 20:52 | 32.36061 | -15.92364 | 36116 ft | 467 kts | 1° |
| 2026-05-05 20:53 | 32.42525 | -15.91603 | 36108 ft | 467 kts | 1° |
| 2026-05-05 20:53 | 32.48989 | -15.90841 | 36115 ft | 467 kts | 1° |
| 2026-05-05 20:54 | 32.55457 | -15.90078 | 36109 ft | 467 kts | 1° |
| 2026-05-05 20:54 | 32.61923 | -15.89313 | 36110 ft | 467 kts | 1° |
| 2026-05-05 20:55 | 32.68392 | -15.88548 | 36134 ft | 467 kts | 1° |
| 2026-05-05 20:55 | 32.74821 | -15.87785 | 36119 ft | 467 kts | 1° |
| 2026-05-05 20:56 | 32.81286 | -15.87018 | 36120 ft | 467 kts | 1° |
| 2026-05-05 20:56 | 32.87753 | -15.86249 | 36123 ft | 467 kts | 1° |
| 2026-05-05 20:57 | 32.94211 | -15.85480 | 36147 ft | 466 kts | 0° |
| 2026-05-05 20:57 | 33.00671 | -15.84709 | 36131 ft | 466 kts | 0° |
| 2026-05-05 20:58 | 33.07127 | -15.83938 | 36126 ft | 466 kts | 0° |
| 2026-05-05 20:58 | 33.13574 | -15.83167 | 36128 ft | 465 kts | 0° |
| 2026-05-05 20:59 | 33.20014 | -15.82395 | 36150 ft | 465 kts | 0° |
| 2026-05-05 20:59 | 33.26446 | -15.81624 | 36139 ft | 464 kts | 360° |
| 2026-05-05 21:00 | 33.32867 | -15.80853 | 36131 ft | 463 kts | 360° |
| 2026-05-05 21:00 | 33.39279 | -15.80081 | 36136 ft | 462 kts | 360° |
| 2026-05-05 21:01 | 33.45681 | -15.79310 | 36163 ft | 462 kts | 360° |
| 2026-05-05 21:01 | 33.52068 | -15.78539 | 36141 ft | 461 kts | 360° |
| 2026-05-05 21:02 | 33.58455 | -15.77744 | 36135 ft | 461 kts | 1° |
| 2026-05-05 21:02 | 33.64828 | -15.76828 | 36141 ft | 461 kts | 1° |
| 2026-05-05 21:03 | 33.71186 | -15.75887 | 36141 ft | 460 kts | 1° |
| 2026-05-05 21:03 | 33.77503 | -15.74963 | 36150 ft | 460 kts | 1° |
| 2026-05-05 21:04 | 33.83858 | -15.74043 | 36145 ft | 460 kts | 1° |
| 2026-05-05 21:04 | 33.90205 | -15.73125 | 36147 ft | 459 kts | 1° |
| 2026-05-05 21:05 | 33.96549 | -15.72206 | 36152 ft | 459 kts | 1° |
| 2026-05-05 21:05 | 34.02893 | -15.71287 | 36159 ft | 460 kts | 2° |
| 2026-05-05 21:06 | 34.09243 | -15.70364 | 36154 ft | 460 kts | 2° |
| 2026-05-05 21:06 | 34.15589 | -15.69440 | 36158 ft | 459 kts | 2° |
| 2026-05-05 21:07 | 34.21936 | -15.68515 | 36157 ft | 459 kts | 2° |
| 2026-05-05 21:07 | 34.28284 | -15.67588 | 36167 ft | 460 kts | 2° |
| 2026-05-05 21:08 | 34.34635 | -15.66660 | 36165 ft | 460 kts | 2° |
| 2026-05-05 21:08 | 34.40983 | -15.65730 | 36166 ft | 459 kts | 2° |
| 2026-05-05 21:09 | 34.47329 | -15.64799 | 36168 ft | 459 kts | 2° |
| 2026-05-05 21:09 | 34.53631 | -15.63874 | 36176 ft | 459 kts | 2° |
| 2026-05-05 21:10 | 34.59975 | -15.62941 | 36174 ft | 459 kts | 2° |
| 2026-05-05 21:10 | 34.66323 | -15.62005 | 36174 ft | 459 kts | 2° |
| 2026-05-05 21:11 | 34.72667 | -15.61069 | 36174 ft | 459 kts | 2° |
| 2026-05-05 21:11 | 34.79013 | -15.60131 | 36177 ft | 460 kts | 2° |
| 2026-05-05 21:12 | 34.85359 | -15.59192 | 36177 ft | 460 kts | 2° |
| 2026-05-05 21:12 | 34.91708 | -15.58251 | 36173 ft | 460 kts | 2° |
| 2026-05-05 21:13 | 34.98064 | -15.57307 | 36176 ft | 460 kts | 2° |
| 2026-05-05 21:13 | 35.04408 | -15.56363 | 36185 ft | 460 kts | 2° |
| 2026-05-05 21:14 | 35.10762 | -15.55417 | 36187 ft | 460 kts | 2° |
| 2026-05-05 21:14 | 35.17120 | -15.54469 | 36181 ft | 460 kts | 2° |
| 2026-05-05 21:15 | 35.23474 | -15.53519 | 36194 ft | 460 kts | 2° |
| 2026-05-05 21:15 | 35.29793 | -15.52574 | 36195 ft | 461 kts | 2° |
| 2026-05-05 21:16 | 35.36149 | -15.51621 | 36189 ft | 461 kts | 2° |
| 2026-05-05 21:16 | 35.42513 | -15.50666 | 36189 ft | 461 kts | 2° |
| 2026-05-05 21:17 | 35.48881 | -15.49708 | 36192 ft | 461 kts | 2° |
| 2026-05-05 21:17 | 35.55242 | -15.48750 | 36195 ft | 461 kts | 2° |
| 2026-05-05 21:18 | 35.61604 | -15.47790 | 36189 ft | 460 kts | 2° |
| 2026-05-05 21:18 | 35.67957 | -15.46830 | 36191 ft | 460 kts | 2° |
| 2026-05-05 21:19 | 35.74302 | -15.45870 | 36209 ft | 459 kts | 2° |
| 2026-05-05 21:19 | 35.80637 | -15.44910 | 36197 ft | 458 kts | 2° |
| 2026-05-05 21:20 | 35.86962 | -15.43949 | 36191 ft | 458 kts | 2° |
| 2026-05-05 21:20 | 35.93273 | -15.42990 | 36193 ft | 457 kts | 2° |
| 2026-05-05 21:21 | 35.99578 | -15.42030 | 36217 ft | 456 kts | 2° |
| 2026-05-05 21:21 | 36.05873 | -15.41069 | 36204 ft | 456 kts | 2° |
| 2026-05-05 21:22 | 36.12174 | -15.40106 | 36198 ft | 456 kts | 2° |
| 2026-05-05 21:22 | 36.18414 | -15.39152 | 36198 ft | 455 kts | 2° |
| 2026-05-05 21:23 | 36.24700 | -15.38598 | 36226 ft | 452 kts | 358° |
| 2026-05-05 21:23 | 36.30982 | -15.38347 | 36208 ft | 451 kts | 357° |
| 2026-05-05 21:24 | 36.37262 | -15.38102 | 36203 ft | 451 kts | 358° |
| 2026-05-05 21:24 | 36.43535 | -15.37819 | 36209 ft | 451 kts | 358° |
| 2026-05-05 21:25 | 36.49808 | -15.37515 | 36216 ft | 451 kts | 358° |
| 2026-05-05 21:25 | 36.56083 | -15.37205 | 36212 ft | 451 kts | 358° |
| 2026-05-05 21:26 | 36.62355 | -15.36894 | 36211 ft | 451 kts | 358° |
| 2026-05-05 21:26 | 36.68630 | -15.36584 | 36213 ft | 451 kts | 358° |
| 2026-05-05 21:27 | 36.74896 | -15.36274 | 36221 ft | 451 kts | 358° |
| 2026-05-05 21:27 | 36.81165 | -15.35964 | 36212 ft | 451 kts | 358° |
| 2026-05-05 21:28 | 36.86373 | -15.35706 | 36211 ft | 450 kts | 358° |
| 2026-05-05 21:28 | 36.92631 | -15.35395 | 36210 ft | 450 kts | 358° |
| 2026-05-05 21:29 | 36.98879 | -15.35084 | 36224 ft | 449 kts | 359° |
| 2026-05-05 21:29 | 37.05124 | -15.34773 | 36212 ft | 449 kts | 359° |
| 2026-05-05 21:30 | 37.11357 | -15.34461 | 36215 ft | 447 kts | 359° |
| 2026-05-05 21:30 | 37.17567 | -15.34151 | 36218 ft | 446 kts | 359° |
| 2026-05-05 21:31 | 37.23763 | -15.33841 | 36220 ft | 445 kts | 359° |
| 2026-05-05 21:31 | 37.29953 | -15.33530 | 36213 ft | 444 kts | 359° |
| 2026-05-05 21:32 | 37.36128 | -15.33220 | 36217 ft | 444 kts | 359° |
| 2026-05-05 21:32 | 37.42291 | -15.32910 | 36220 ft | 443 kts | 359° |
| 2026-05-05 21:33 | 37.48406 | -15.32602 | 36218 ft | 443 kts | 359° |
| 2026-05-05 21:33 | 37.54561 | -15.32291 | 36218 ft | 443 kts | 359° |
| 2026-05-05 21:34 | 37.60717 | -15.31980 | 36221 ft | 443 kts | 359° |
| 2026-05-05 21:34 | 37.66876 | -15.31668 | 36241 ft | 443 kts | 359° |
| 2026-05-05 21:35 | 37.73046 | -15.31355 | 36224 ft | 444 kts | 359° |
| 2026-05-05 21:35 | 37.79220 | -15.31041 | 36222 ft | 444 kts | 359° |
| 2026-05-05 21:36 | 37.85392 | -15.30727 | 36226 ft | 444 kts | 359° |
| 2026-05-05 21:36 | 37.91563 | -15.30412 | 36236 ft | 444 kts | 359° |
| 2026-05-05 21:37 | 37.97731 | -15.30097 | 36229 ft | 443 kts | 359° |
| 2026-05-05 21:37 | 38.03887 | -15.29782 | 36226 ft | 442 kts | 359° |
| 2026-05-05 21:38 | 38.10028 | -15.29467 | 36231 ft | 441 kts | 359° |
| 2026-05-05 21:38 | 38.16121 | -15.29154 | 36237 ft | 441 kts | 360° |
| 2026-05-05 21:39 | 38.22242 | -15.28840 | 36228 ft | 440 kts | 360° |
| 2026-05-05 21:39 | 38.28343 | -15.28525 | 36230 ft | 438 kts | 360° |
| 2026-05-05 21:40 | 38.34434 | -15.28211 | 36237 ft | 437 kts | 360° |
| 2026-05-05 21:40 | 38.40510 | -15.27897 | 36234 ft | 436 kts | 360° |
| 2026-05-05 21:41 | 38.46571 | -15.27583 | 36233 ft | 436 kts | 360° |
| 2026-05-05 21:41 | 38.52628 | -15.27269 | 36233 ft | 435 kts | 360° |
| 2026-05-05 21:42 | 38.58669 | -15.26956 | 36246 ft | 435 kts | 360° |
| 2026-05-05 21:42 | 38.64716 | -15.26641 | 36236 ft | 435 kts | 360° |
| 2026-05-05 21:43 | 38.70762 | -15.26326 | 36233 ft | 434 kts | 360° |
| 2026-05-05 21:43 | 38.76801 | -15.26011 | 36232 ft | 434 kts | 360° |
| 2026-05-05 21:44 | 38.82801 | -15.25697 | 36246 ft | 434 kts | 360° |
| 2026-05-05 21:44 | 38.88841 | -15.25381 | 36230 ft | 434 kts | 360° |
| 2026-05-05 21:45 | 38.94876 | -15.25064 | 36238 ft | 434 kts | 360° |
| 2026-05-05 21:45 | 39.00917 | -15.24746 | 36232 ft | 434 kts | 360° |
| 2026-05-05 21:46 | 39.06952 | -15.24428 | 36235 ft | 434 kts | 0° |
| 2026-05-05 21:46 | 39.12984 | -15.24110 | 36235 ft | 434 kts | 0° |
| 2026-05-05 21:47 | 39.19007 | -15.23792 | 36235 ft | 433 kts | 0° |
| 2026-05-05 21:47 | 39.25028 | -15.23473 | 36244 ft | 433 kts | 0° |
| 2026-05-05 21:48 | 39.31042 | -15.23154 | 36240 ft | 432 kts | 0° |
| 2026-05-05 21:48 | 39.37050 | -15.22835 | 36235 ft | 432 kts | 0° |
| 2026-05-05 21:49 | 39.43050 | -15.22516 | 36239 ft | 431 kts | 0° |
| 2026-05-05 21:49 | 39.49042 | -15.22197 | 36251 ft | 431 kts | 0° |
| 2026-05-05 21:50 | 39.55031 | -15.21877 | 36234 ft | 430 kts | 0° |
| 2026-05-05 21:50 | 39.60969 | -15.21560 | 36236 ft | 429 kts | 0° |
| 2026-05-05 21:51 | 39.66973 | -15.21238 | 36236 ft | 429 kts | 0° |
| 2026-05-05 21:51 | 39.72891 | -15.20920 | 36236 ft | 428 kts | 0° |
| 2026-05-05 21:52 | 39.81805 | -15.20441 | 36239 ft | 427 kts | 0° |
| 2026-05-05 21:53 | 39.87743 | -15.20121 | 36240 ft | 427 kts | 0° |
| 2026-05-05 21:53 | 39.93681 | -15.19801 | 36244 ft | 427 kts | 0° |
| 2026-05-05 21:54 | 39.99616 | -15.19480 | 36236 ft | 427 kts | 0° |
| 2026-05-05 21:54 | 40.05553 | -15.19158 | 36237 ft | 427 kts | 0° |
| 2026-05-05 21:55 | 40.11498 | -15.18836 | 36241 ft | 428 kts | 0° |
| 2026-05-05 21:55 | 40.17449 | -15.18512 | 36244 ft | 428 kts | 0° |
| 2026-05-05 21:56 | 40.23403 | -15.18188 | 36239 ft | 428 kts | 0° |
| 2026-05-05 21:56 | 40.29356 | -15.17863 | 36239 ft | 429 kts | 0° |
| 2026-05-05 21:57 | 40.35318 | -15.17537 | 36245 ft | 429 kts | 0° |
| 2026-05-05 21:57 | 40.41283 | -15.17211 | 36237 ft | 429 kts | 0° |
| 2026-05-05 21:58 | 40.47242 | -15.16884 | 36240 ft | 429 kts | 0° |
| 2026-05-05 21:58 | 40.53202 | -15.16556 | 36239 ft | 429 kts | 0° |
| 2026-05-05 21:59 | 40.59161 | -15.16228 | 36248 ft | 428 kts | 360° |
| 2026-05-05 21:59 | 40.65116 | -15.15900 | 36239 ft | 428 kts | 0° |
| 2026-05-05 22:00 | 40.71064 | -15.15571 | 36241 ft | 428 kts | 360° |
| 2026-05-05 22:00 | 40.76966 | -15.15244 | 36244 ft | 427 kts | 360° |
| 2026-05-05 22:01 | 40.82898 | -15.14915 | 36249 ft | 426 kts | 0° |
| 2026-05-05 22:01 | 40.88814 | -15.14587 | 36240 ft | 426 kts | 0° |
| 2026-05-05 22:02 | 40.94730 | -15.14258 | 36242 ft | 425 kts | 0° |
| 2026-05-05 22:02 | 41.00634 | -15.13929 | 36250 ft | 424 kts | 360° |
| 2026-05-05 22:03 | 41.06529 | -15.13600 | 36241 ft | 424 kts | 360° |
| 2026-05-05 22:03 | 41.12422 | -15.13270 | 36242 ft | 424 kts | 360° |
| 2026-05-05 22:04 | 41.18305 | -15.12941 | 36242 ft | 423 kts | 360° |
| 2026-05-05 22:04 | 41.24193 | -15.12610 | 36246 ft | 423 kts | 360° |
| 2026-05-05 22:05 | 41.30076 | -15.12279 | 36241 ft | 423 kts | 360° |
| 2026-05-05 22:05 | 41.35963 | -15.11947 | 36242 ft | 423 kts | 360° |
| 2026-05-05 22:06 | 41.41848 | -15.11615 | 36252 ft | 423 kts | 360° |
| 2026-05-05 22:06 | 41.47729 | -15.11283 | 36243 ft | 423 kts | 360° |
| 2026-05-05 22:07 | 41.53617 | -15.10949 | 36243 ft | 424 kts | 360° |
| 2026-05-05 22:07 | 41.59469 | -15.10617 | 36242 ft | 424 kts | 360° |
| 2026-05-05 22:08 | 41.65367 | -15.10282 | 36247 ft | 424 kts | 360° |
| 2026-05-05 22:08 | 41.71260 | -15.09946 | 36246 ft | 424 kts | 360° |
| 2026-05-05 22:09 | 41.77163 | -15.09609 | 36248 ft | 424 kts | 360° |
| 2026-05-05 22:09 | 41.83062 | -15.09272 | 36237 ft | 425 kts | 360° |
| 2026-05-05 22:10 | 41.88966 | -15.08934 | 36243 ft | 425 kts | 360° |
| 2026-05-05 22:10 | 41.94879 | -15.08595 | 36244 ft | 425 kts | 360° |
| 2026-05-05 22:11 | 42.00763 | -15.07784 | 36243 ft | 429 kts | 11° |
| 2026-05-05 22:11 | 42.06409 | -15.05071 | 36236 ft | 432 kts | 18° |
| 2026-05-05 22:12 | 42.11986 | -15.02049 | 36241 ft | 432 kts | 18° |
| 2026-05-05 22:12 | 42.17573 | -14.99040 | 36239 ft | 432 kts | 18° |
| 2026-05-05 22:13 | 42.23161 | -14.96060 | 36245 ft | 432 kts | 18° |
| 2026-05-05 22:13 | 42.28759 | -14.93085 | 36246 ft | 432 kts | 18° |
| 2026-05-05 22:14 | 42.34328 | -14.90122 | 36236 ft | 433 kts | 18° |
| 2026-05-05 22:14 | 42.39942 | -14.87130 | 36240 ft | 434 kts | 18° |
| 2026-05-05 22:15 | 42.45577 | -14.84119 | 36246 ft | 436 kts | 18° |
| 2026-05-05 22:15 | 42.51222 | -14.81098 | 36248 ft | 437 kts | 18° |
| 2026-05-05 22:16 | 42.56883 | -14.78061 | 36239 ft | 438 kts | 18° |
| 2026-05-05 22:16 | 42.62557 | -14.75012 | 36237 ft | 439 kts | 18° |
| 2026-05-05 22:17 | 42.68232 | -14.71955 | 36247 ft | 439 kts | 18° |
| 2026-05-05 22:17 | 42.73919 | -14.68887 | 36241 ft | 439 kts | 18° |
| 2026-05-05 22:18 | 42.79599 | -14.65816 | 36238 ft | 439 kts | 18° |
| 2026-05-05 22:18 | 42.85277 | -14.62740 | 36233 ft | 439 kts | 18° |
| 2026-05-05 22:19 | 42.90942 | -14.59665 | 36241 ft | 438 kts | 18° |
| 2026-05-05 22:19 | 42.95648 | -14.57106 | 36245 ft | 438 kts | 18° |
| 2026-05-05 22:20 | 43.02222 | -14.53525 | 36233 ft | 437 kts | 18° |
| 2026-05-05 22:20 | 43.07872 | -14.50440 | 36234 ft | 437 kts | 19° |
| 2026-05-05 22:21 | 43.12604 | -14.47851 | 35433 ft | 437 kts | 19° |
| 2026-05-05 22:21 | 43.15387 | -14.46329 | 36333 ft | 433 kts | 20° |
| 2026-05-05 22:21 | 43.18176 | -14.44800 | 36308 ft | 434 kts | 19° |
| 2026-05-05 22:22 | 43.23816 | -14.41703 | 36215 ft | 438 kts | 19° |
| 2026-05-05 22:22 | 43.29474 | -14.38590 | 36213 ft | 438 kts | 19° |
| 2026-05-05 22:23 | 43.35134 | -14.35468 | 36213 ft | 438 kts | 19° |
| 2026-05-05 22:23 | 43.40789 | -14.32344 | 36208 ft | 438 kts | 19° |
| 2026-05-05 22:24 | 43.46438 | -14.29217 | 36208 ft | 437 kts | 19° |
| 2026-05-05 22:24 | 43.52086 | -14.26085 | 36208 ft | 437 kts | 19° |
| 2026-05-05 22:25 | 43.57723 | -14.22952 | 36212 ft | 437 kts | 19° |
| 2026-05-05 22:25 | 43.63323 | -14.19834 | 36211 ft | 437 kts | 19° |
| 2026-05-05 22:26 | 43.68952 | -14.16692 | 36208 ft | 436 kts | 19° |
| 2026-05-05 22:26 | 43.74581 | -14.13545 | 36218 ft | 436 kts | 19° |
| 2026-05-05 22:27 | 43.80209 | -14.10392 | 36210 ft | 436 kts | 19° |
| 2026-05-05 22:27 | 43.85834 | -14.07234 | 36209 ft | 436 kts | 19° |
| 2026-05-05 22:28 | 43.91463 | -14.04067 | 36209 ft | 436 kts | 19° |
| 2026-05-05 22:28 | 43.97086 | -14.00897 | 36210 ft | 436 kts | 19° |
| 2026-05-05 22:29 | 44.02712 | -13.97719 | 36210 ft | 437 kts | 19° |
| 2026-05-05 22:29 | 44.08342 | -13.94533 | 36210 ft | 437 kts | 19° |
| 2026-05-05 22:30 | 44.13967 | -13.91342 | 36207 ft | 437 kts | 19° |
| 2026-05-05 22:30 | 44.19570 | -13.88157 | 36242 ft | 440 kts | 19° |
| 2026-05-05 22:30 | 44.22408 | -13.86543 | 36450 ft | 440 kts | 19° |
| 2026-05-05 22:31 | 44.25236 | -13.84931 | 36710 ft | 438 kts | 19° |
| 2026-05-05 22:31 | 44.28051 | -13.83324 | 36972 ft | 437 kts | 19° |
| 2026-05-05 22:31 | 44.30867 | -13.81715 | 37189 ft | 437 kts | 19° |
| 2026-05-05 22:31 | 44.33682 | -13.80106 | 37334 ft | 438 kts | 19° |
| 2026-05-05 22:32 | 44.36506 | -13.78491 | 37515 ft | 438 kts | 19° |
| 2026-05-05 22:32 | 44.39325 | -13.76876 | 37709 ft | 438 kts | 19° |
| 2026-05-05 22:32 | 44.42145 | -13.75259 | 37892 ft | 438 kts | 19° |
| 2026-05-05 22:32 | 44.44968 | -13.73638 | 38063 ft | 438 kts | 19° |
| 2026-05-05 22:33 | 44.47785 | -13.72020 | 38191 ft | 439 kts | 19° |
| 2026-05-05 22:33 | 44.53466 | -13.68751 | 38207 ft | 441 kts | 19° |
| 2026-05-05 22:34 | 44.59125 | -13.65486 | 38204 ft | 438 kts | 19° |
| 2026-05-05 22:34 | 44.64711 | -13.62256 | 38199 ft | 436 kts | 19° |
| 2026-05-05 22:35 | 44.70338 | -13.58997 | 38200 ft | 434 kts | 19° |
| 2026-05-05 22:35 | 44.75877 | -13.55782 | 38200 ft | 433 kts | 19° |
| 2026-05-05 22:36 | 44.81439 | -13.52548 | 38202 ft | 433 kts | 20° |
| 2026-05-05 22:36 | 44.87005 | -13.49303 | 38199 ft | 433 kts | 20° |
| 2026-05-05 22:37 | 44.92586 | -13.46043 | 38201 ft | 435 kts | 20° |
| 2026-05-05 22:37 | 44.98193 | -13.42762 | 38212 ft | 437 kts | 20° |
| 2026-05-05 22:38 | 45.03961 | -13.40117 | 38210 ft | 436 kts | 11° |
| 2026-05-05 22:38 | 45.09882 | -13.38159 | 38199 ft | 437 kts | 10° |
| 2026-05-05 22:39 | 45.15825 | -13.36213 | 38196 ft | 439 kts | 11° |
| 2026-05-05 22:39 | 45.21780 | -13.34199 | 38202 ft | 440 kts | 11° |
| 2026-05-05 22:40 | 45.27734 | -13.32146 | 38196 ft | 441 kts | 11° |
| 2026-05-05 22:40 | 45.33694 | -13.30077 | 38194 ft | 441 kts | 11° |
| 2026-05-05 22:41 | 45.39646 | -13.28005 | 38210 ft | 440 kts | 11° |
| 2026-05-05 22:41 | 45.45591 | -13.25933 | 38186 ft | 439 kts | 11° |
| 2026-05-05 22:42 | 45.51487 | -13.23874 | 38186 ft | 438 kts | 11° |
| 2026-05-05 22:42 | 45.57403 | -13.21804 | 38198 ft | 437 kts | 11° |
| 2026-05-05 22:43 | 45.63306 | -13.19734 | 38190 ft | 436 kts | 11° |
| 2026-05-05 22:43 | 45.69195 | -13.17665 | 38189 ft | 435 kts | 11° |
| 2026-05-05 22:44 | 45.75076 | -13.15594 | 38186 ft | 435 kts | 11° |
| 2026-05-05 22:44 | 45.80949 | -13.13521 | 38192 ft | 435 kts | 12° |
| 2026-05-05 22:45 | 45.86824 | -13.11443 | 38188 ft | 435 kts | 12° |
| 2026-05-05 22:45 | 45.92706 | -13.09358 | 38196 ft | 435 kts | 12° |
| 2026-05-05 22:46 | 45.98586 | -13.07269 | 38185 ft | 436 kts | 12° |
| 2026-05-05 22:46 | 46.04476 | -13.05172 | 38187 ft | 436 kts | 12° |
| 2026-05-05 22:47 | 46.10371 | -13.03069 | 38194 ft | 437 kts | 12° |
| 2026-05-05 22:47 | 46.16235 | -13.00972 | 38191 ft | 437 kts | 12° |
| 2026-05-05 22:48 | 46.22141 | -12.98855 | 38185 ft | 438 kts | 12° |
| 2026-05-05 22:48 | 46.28059 | -12.96729 | 38187 ft | 438 kts | 12° |
| 2026-05-05 22:49 | 46.33978 | -12.94599 | 38183 ft | 439 kts | 12° |
| 2026-05-05 22:49 | 46.39904 | -12.92460 | 38190 ft | 439 kts | 12° |
| 2026-05-05 22:50 | 46.45832 | -12.90317 | 38187 ft | 439 kts | 12° |
| 2026-05-05 22:50 | 46.51763 | -12.88167 | 38180 ft | 439 kts | 12° |
| 2026-05-05 22:51 | 46.57691 | -12.86013 | 38179 ft | 439 kts | 12° |
| 2026-05-05 22:51 | 46.63612 | -12.83858 | 38179 ft | 439 kts | 12° |
| 2026-05-05 22:52 | 46.69536 | -12.81696 | 38179 ft | 439 kts | 12° |
| 2026-05-05 22:52 | 46.75412 | -12.79547 | 38184 ft | 438 kts | 12° |
| 2026-05-05 22:53 | 46.81325 | -12.77380 | 38184 ft | 438 kts | 12° |
| 2026-05-05 22:53 | 46.87238 | -12.75208 | 38182 ft | 438 kts | 12° |
| 2026-05-05 22:54 | 46.93146 | -12.73032 | 38180 ft | 438 kts | 12° |
| 2026-05-05 22:54 | 46.99053 | -12.70852 | 38181 ft | 438 kts | 12° |
| 2026-05-05 22:55 | 47.04961 | -12.68667 | 38177 ft | 438 kts | 12° |
| 2026-05-05 22:55 | 47.10870 | -12.66476 | 38190 ft | 438 kts | 12° |
| 2026-05-05 22:56 | 47.16779 | -12.64281 | 38179 ft | 438 kts | 12° |
| 2026-05-05 22:56 | 47.22692 | -12.62079 | 38180 ft | 438 kts | 12° |
| 2026-05-05 22:57 | 47.28609 | -12.59870 | 38180 ft | 439 kts | 12° |
| 2026-05-05 22:57 | 47.34496 | -12.57667 | 38183 ft | 439 kts | 12° |
| 2026-05-05 22:58 | 47.40418 | -12.55446 | 38182 ft | 440 kts | 12° |
| 2026-05-05 22:58 | 47.46350 | -12.53216 | 38176 ft | 440 kts | 12° |
| 2026-05-05 22:59 | 47.52285 | -12.50980 | 38177 ft | 440 kts | 12° |
| 2026-05-05 22:59 | 47.58222 | -12.48738 | 38182 ft | 440 kts | 12° |
| 2026-05-05 23:00 | 47.67125 | -12.45366 | 38176 ft | 440 kts | 12° |
| 2026-05-05 23:00 | 47.73063 | -12.43110 | 38177 ft | 440 kts | 12° |
| 2026-05-05 23:01 | 47.78998 | -12.40851 | 38179 ft | 440 kts | 12° |
| 2026-05-05 23:01 | 47.84933 | -12.38585 | 38173 ft | 440 kts | 12° |
| 2026-05-05 23:02 | 47.90872 | -12.36313 | 38169 ft | 440 kts | 12° |
| 2026-05-05 23:02 | 47.96804 | -12.34038 | 38173 ft | 440 kts | 12° |
| 2026-05-05 23:03 | 48.02735 | -12.31758 | 38169 ft | 440 kts | 12° |
| 2026-05-05 23:03 | 48.08626 | -12.29488 | 38169 ft | 440 kts | 12° |
| 2026-05-05 23:04 | 48.14547 | -12.27202 | 38169 ft | 440 kts | 12° |
| 2026-05-05 23:04 | 48.20467 | -12.24910 | 38164 ft | 439 kts | 12° |
| 2026-05-05 23:05 | 48.26391 | -12.22611 | 38165 ft | 439 kts | 12° |
| 2026-05-05 23:05 | 48.32307 | -12.20309 | 38165 ft | 439 kts | 12° |
| 2026-05-05 23:06 | 48.38217 | -12.18005 | 38157 ft | 439 kts | 12° |
| 2026-05-05 23:06 | 48.44137 | -12.15691 | 38173 ft | 439 kts | 12° |
| 2026-05-05 23:07 | 48.50055 | -12.13372 | 38159 ft | 439 kts | 12° |
| 2026-05-05 23:07 | 48.55937 | -12.11062 | 38160 ft | 439 kts | 12° |
| 2026-05-05 23:08 | 48.61855 | -12.08731 | 38160 ft | 439 kts | 12° |
| 2026-05-05 23:08 | 48.67771 | -12.06397 | 38165 ft | 440 kts | 12° |
| 2026-05-05 23:09 | 48.73693 | -12.04053 | 38155 ft | 440 kts | 13° |
| 2026-05-05 23:09 | 48.79621 | -12.01702 | 38155 ft | 440 kts | 12° |
| 2026-05-05 23:10 | 48.85363 | -11.98458 | 38154 ft | 444 kts | 28° |
| 2026-05-05 23:10 | 48.90450 | -11.93105 | 38152 ft | 446 kts | 34° |
| 2026-05-05 23:11 | 48.95458 | -11.87528 | 38153 ft | 446 kts | 33° |
| 2026-05-05 23:11 | 49.00502 | -11.82019 | 38149 ft | 446 kts | 33° |
| 2026-05-05 23:12 | 49.04700 | -11.77457 | 38148 ft | 447 kts | 33° |
| 2026-05-05 23:12 | 49.09570 | -11.71542 | 38148 ft | 448 kts | 38° |
| 2026-05-05 23:13 | 49.15056 | -11.64294 | 38146 ft | 449 kts | 39° |
| 2026-05-05 23:13 | 49.19009 | -11.59064 | 38146 ft | 449 kts | 38° |
| 2026-05-05 23:14 | 49.23748 | -11.52844 | 38148 ft | 449 kts | 38° |
| 2026-05-05 23:14 | 49.28461 | -11.46676 | 38147 ft | 449 kts | 38° |
| 2026-05-05 23:15 | 49.33199 | -11.40469 | 38133 ft | 449 kts | 38° |
| 2026-05-05 23:15 | 49.37939 | -11.34243 | 38140 ft | 449 kts | 38° |
| 2026-05-05 23:16 | 49.42673 | -11.28005 | 38133 ft | 448 kts | 38° |
| 2026-05-05 23:16 | 49.47403 | -11.21757 | 38141 ft | 448 kts | 38° |
| 2026-05-05 23:17 | 49.52129 | -11.15497 | 38126 ft | 449 kts | 39° |
| 2026-05-05 23:17 | 49.56858 | -11.09215 | 38129 ft | 448 kts | 38° |
| 2026-05-05 23:18 | 49.61571 | -11.02938 | 38126 ft | 448 kts | 39° |
| 2026-05-05 23:18 | 49.66287 | -10.96642 | 38129 ft | 448 kts | 38° |
| 2026-05-05 23:19 | 49.70996 | -10.90338 | 38124 ft | 448 kts | 38° |
| 2026-05-05 23:19 | 49.75703 | -10.84019 | 38128 ft | 448 kts | 39° |
| 2026-05-05 23:20 | 49.80405 | -10.77691 | 38122 ft | 448 kts | 39° |
| 2026-05-05 23:20 | 49.85078 | -10.71383 | 38117 ft | 448 kts | 39° |
| 2026-05-05 23:21 | 49.89776 | -10.65026 | 38120 ft | 448 kts | 39° |
| 2026-05-05 23:21 | 49.94470 | -10.58657 | 38117 ft | 448 kts | 39° |
| 2026-05-05 23:22 | 49.99163 | -10.52273 | 38122 ft | 449 kts | 39° |
| 2026-05-05 23:22 | 50.03857 | -10.45870 | 38113 ft | 449 kts | 39° |
| 2026-05-05 23:23 | 50.08547 | -10.39454 | 38107 ft | 449 kts | 39° |
| 2026-05-05 23:23 | 50.13240 | -10.33018 | 38106 ft | 449 kts | 39° |
| 2026-05-05 23:24 | 50.17924 | -10.26575 | 38105 ft | 449 kts | 39° |
| 2026-05-05 23:24 | 50.22609 | -10.20114 | 38104 ft | 449 kts | 39° |
| 2026-05-05 23:25 | 50.27295 | -10.13636 | 38111 ft | 450 kts | 39° |
| 2026-05-05 23:25 | 50.31978 | -10.07142 | 38099 ft | 450 kts | 39° |
| 2026-05-05 23:26 | 50.36656 | -10.00637 | 38096 ft | 450 kts | 39° |
| 2026-05-05 23:26 | 50.41336 | -9.94112 | 38096 ft | 450 kts | 39° |
| 2026-05-05 23:27 | 50.46009 | -9.87579 | 38102 ft | 450 kts | 39° |
| 2026-05-05 23:27 | 50.50688 | -9.81018 | 38090 ft | 450 kts | 40° |
| 2026-05-05 23:28 | 50.55355 | -9.74458 | 38090 ft | 451 kts | 40° |
| 2026-05-05 23:28 | 50.59996 | -9.67915 | 38087 ft | 451 kts | 40° |
| 2026-05-05 23:29 | 50.64668 | -9.61310 | 38088 ft | 451 kts | 40° |
| 2026-05-05 23:29 | 50.69328 | -9.54703 | 38087 ft | 451 kts | 40° |
| 2026-05-05 23:30 | 50.74004 | -9.48056 | 38090 ft | 451 kts | 40° |
| 2026-05-05 23:30 | 50.78666 | -9.41409 | 38100 ft | 452 kts | 40° |
| 2026-05-05 23:31 | 50.83324 | -9.34751 | 38086 ft | 452 kts | 40° |
| 2026-05-05 23:31 | 50.87984 | -9.28070 | 38084 ft | 452 kts | 40° |
| 2026-05-05 23:32 | 50.92629 | -9.21391 | 38081 ft | 451 kts | 40° |
| 2026-05-05 23:32 | 50.97280 | -9.14686 | 38082 ft | 451 kts | 40° |
| 2026-05-05 23:33 | 51.01917 | -9.07981 | 38076 ft | 451 kts | 40° |
| 2026-05-05 23:33 | 51.06529 | -9.01293 | 38088 ft | 451 kts | 40° |
| 2026-05-05 23:34 | 51.11157 | -8.94565 | 38078 ft | 451 kts | 40° |
| 2026-05-05 23:34 | 51.15776 | -8.87827 | 38078 ft | 451 kts | 41° |
| 2026-05-05 23:35 | 51.20392 | -8.81061 | 38077 ft | 451 kts | 41° |
| 2026-05-05 23:35 | 51.25001 | -8.74283 | 38082 ft | 451 kts | 41° |
| 2026-05-05 23:36 | 51.29615 | -8.67478 | 38071 ft | 451 kts | 41° |
| 2026-05-05 23:36 | 51.34225 | -8.60660 | 38072 ft | 452 kts | 41° |
| 2026-05-05 23:37 | 51.38809 | -8.53862 | 38073 ft | 452 kts | 41° |
| 2026-05-05 23:37 | 51.43422 | -8.47002 | 38075 ft | 452 kts | 41° |
| 2026-05-05 23:38 | 51.48032 | -8.40125 | 38065 ft | 453 kts | 41° |
| 2026-05-05 23:38 | 51.52645 | -8.33224 | 38071 ft | 453 kts | 41° |
| 2026-05-05 23:39 | 51.57259 | -8.26302 | 38070 ft | 453 kts | 41° |
| 2026-05-05 23:39 | 51.61867 | -8.19369 | 38068 ft | 454 kts | 41° |
| 2026-05-05 23:40 | 51.66478 | -8.12411 | 38055 ft | 454 kts | 41° |
| 2026-05-05 23:40 | 51.71054 | -8.05485 | 38071 ft | 454 kts | 41° |
| 2026-05-05 23:41 | 51.75661 | -7.98492 | 38063 ft | 455 kts | 42° |
| 2026-05-05 23:41 | 51.80267 | -7.91480 | 38064 ft | 455 kts | 41° |
| 2026-05-05 23:42 | 51.84866 | -7.84459 | 38060 ft | 455 kts | 42° |
| 2026-05-05 23:42 | 51.89468 | -7.77411 | 38071 ft | 455 kts | 42° |
| 2026-05-05 23:43 | 51.94062 | -7.70355 | 38074 ft | 455 kts | 42° |
| 2026-05-05 23:43 | 51.98621 | -7.63332 | 38068 ft | 455 kts | 42° |
| 2026-05-05 23:44 | 52.03217 | -7.56232 | 38061 ft | 455 kts | 42° |
| 2026-05-05 23:44 | 52.07810 | -7.49113 | 38074 ft | 455 kts | 42° |
| 2026-05-05 23:45 | 52.12363 | -7.42037 | 38073 ft | 455 kts | 42° |
| 2026-05-05 23:45 | 52.16946 | -7.34891 | 38069 ft | 456 kts | 42° |
| 2026-05-05 23:46 | 52.21526 | -7.27730 | 38063 ft | 456 kts | 42° |
| 2026-05-05 23:46 | 52.26072 | -7.20600 | 38070 ft | 456 kts | 42° |
| 2026-05-05 23:47 | 52.30665 | -7.13362 | 38075 ft | 456 kts | 44° |
| 2026-05-05 23:47 | 52.32673 | -7.09451 | 38060 ft | 458 kts | 56° |
| 2026-05-05 23:47 | 52.34368 | -7.05038 | 38087 ft | 458 kts | 58° |
| 2026-05-05 23:48 | 52.37627 | -6.96074 | 38082 ft | 458 kts | 58° |
| 2026-05-05 23:48 | 52.40890 | -6.87101 | 38076 ft | 459 kts | 58° |
| 2026-05-05 23:49 | 52.44185 | -6.78152 | 38071 ft | 459 kts | 58° |
| 2026-05-05 23:49 | 52.47498 | -6.69192 | 38070 ft | 459 kts | 58° |
| 2026-05-05 23:50 | 52.50805 | -6.60228 | 38072 ft | 459 kts | 58° |
| 2026-05-05 23:50 | 52.54104 | -6.51250 | 38071 ft | 459 kts | 58° |
| 2026-05-05 23:51 | 52.57395 | -6.42261 | 38072 ft | 459 kts | 58° |
| 2026-05-05 23:51 | 52.60679 | -6.33256 | 38076 ft | 459 kts | 58° |
| 2026-05-05 23:52 | 52.63958 | -6.24232 | 38067 ft | 459 kts | 58° |
| 2026-05-05 23:52 | 52.67236 | -6.15178 | 38079 ft | 462 kts | 58° |
| 2026-05-05 23:53 | 52.70528 | -6.06056 | 38076 ft | 469 kts | 58° |
| 2026-05-05 23:53 | 52.73871 | -5.96756 | 38074 ft | 473 kts | 58° |
| 2026-05-05 23:54 | 52.77225 | -5.87388 | 38068 ft | 475 kts | 58° |
| 2026-05-05 23:54 | 52.80580 | -5.77984 | 38060 ft | 475 kts | 58° |
| 2026-05-05 23:55 | 52.83925 | -5.68571 | 38058 ft | 474 kts | 58° |
| 2026-05-05 23:55 | 52.87257 | -5.59161 | 38055 ft | 473 kts | 58° |
| 2026-05-05 23:56 | 52.90556 | -5.49810 | 38055 ft | 471 kts | 58° |
| 2026-05-05 23:56 | 52.93845 | -5.40450 | 38058 ft | 469 kts | 58° |
| 2026-05-05 23:57 | 52.97119 | -5.31100 | 38055 ft | 468 kts | 59° |
| 2026-05-05 23:57 | 53.00373 | -5.21771 | 38057 ft | 467 kts | 59° |
| 2026-05-05 23:58 | 53.03613 | -5.12446 | 38058 ft | 466 kts | 59° |
| 2026-05-05 23:58 | 53.06845 | -5.03111 | 38060 ft | 466 kts | 59° |
| 2026-05-05 23:59 | 53.10070 | -4.93762 | 38056 ft | 466 kts | 59° |
| 2026-05-05 23:59 | 53.13286 | -4.84403 | 38058 ft | 466 kts | 59° |
| 2026-05-06 00:00 | 53.16501 | -4.75009 | 38074 ft | 467 kts | 59° |
| 2026-05-06 00:00 | 53.19691 | -4.65657 | 38053 ft | 468 kts | 59° |
| 2026-05-06 00:01 | 53.22906 | -4.56192 | 38054 ft | 469 kts | 59° |
| 2026-05-06 00:01 | 53.26123 | -4.46685 | 38053 ft | 471 kts | 59° |
| 2026-05-06 00:02 | 53.29337 | -4.37150 | 38052 ft | 472 kts | 59° |
| 2026-05-06 00:02 | 53.32553 | -4.27572 | 38050 ft | 473 kts | 60° |
| 2026-05-06 00:03 | 53.35766 | -4.17968 | 38049 ft | 473 kts | 60° |
| 2026-05-06 00:03 | 53.39066 | -4.08461 | 38016 ft | 467 kts | 52° |
| 2026-05-06 00:04 | 53.41089 | -4.04280 | 37691 ft | 459 kts | 47° |
| 2026-05-06 00:04 | 53.42479 | -4.01613 | 37279 ft | 459 kts | 47° |
| 2026-05-06 00:04 | 53.44601 | -3.97595 | 36572 ft | 461 kts | 47° |
| 2026-05-06 00:04 | 53.46732 | -3.93551 | 35857 ft | 464 kts | 47° |
| 2026-05-06 00:05 | 53.50989 | -3.85332 | 34545 ft | 468 kts | 48° |
| 2026-05-06 00:05 | 53.53108 | -3.81178 | 33913 ft | 469 kts | 48° |
| 2026-05-06 00:05 | 53.55223 | -3.77005 | 33204 ft | 469 kts | 48° |
| 2026-05-06 00:06 | 53.57331 | -3.72827 | 32683 ft | 465 kts | 48° |
| 2026-05-06 00:06 | 53.59403 | -3.68708 | 32237 ft | 459 kts | 48° |
| 2026-05-06 00:06 | 53.61473 | -3.64590 | 31836 ft | 463 kts | 48° |
| 2026-05-06 00:06 | 53.63571 | -3.60412 | 31430 ft | 472 kts | 48° |
| 2026-05-06 00:07 | 53.65699 | -3.56168 | 31012 ft | 474 kts | 48° |
| 2026-05-06 00:07 | 53.67822 | -3.51927 | 30588 ft | 473 kts | 48° |
| 2026-05-06 00:07 | 53.69939 | -3.47688 | 30195 ft | 472 kts | 48° |
| 2026-05-06 00:07 | 53.72051 | -3.43454 | 29712 ft | 471 kts | 48° |
| 2026-05-06 00:08 | 53.74160 | -3.39219 | 29260 ft | 470 kts | 48° |
| 2026-05-06 00:08 | 53.76266 | -3.34982 | 28829 ft | 473 kts | 48° |
| 2026-05-06 00:08 | 53.78396 | -3.30692 | 28375 ft | 478 kts | 48° |
| 2026-05-06 00:08 | 53.80516 | -3.26414 | 27931 ft | 480 kts | 48° |
| 2026-05-06 00:09 | 53.82660 | -3.22078 | 27493 ft | 479 kts | 48° |
| 2026-05-06 00:09 | 53.84799 | -3.17744 | 27035 ft | 479 kts | 49° |
| 2026-05-06 00:09 | 53.86934 | -3.13411 | 26591 ft | 479 kts | 49° |
| 2026-05-06 00:09 | 53.89067 | -3.09075 | 26156 ft | 479 kts | 49° |
| 2026-05-06 00:10 | 53.91205 | -3.04721 | 25721 ft | 479 kts | 49° |
| 2026-05-06 00:10 | 53.93338 | -3.00370 | 25276 ft | 479 kts | 49° |
| 2026-05-06 00:10 | 53.95469 | -2.96014 | 24837 ft | 479 kts | 49° |
| 2026-05-06 00:10 | 53.97555 | -2.91744 | 24413 ft | 476 kts | 49° |
| 2026-05-06 00:11 | 53.99665 | -2.87417 | 23972 ft | 475 kts | 49° |
| 2026-05-06 00:11 | 54.01761 | -2.83112 | 23481 ft | 468 kts | 49° |
| 2026-05-06 00:11 | 54.03814 | -2.78886 | 22989 ft | 460 kts | 49° |
| 2026-05-06 00:11 | 54.05839 | -2.74712 | 22537 ft | 457 kts | 49° |
| 2026-05-06 00:12 | 54.07863 | -2.70535 | 22117 ft | 456 kts | 49° |
| 2026-05-06 00:12 | 54.09871 | -2.66385 | 21684 ft | 453 kts | 49° |
| 2026-05-06 00:12 | 54.11868 | -2.62248 | 21261 ft | 450 kts | 49° |
| 2026-05-06 00:12 | 54.13851 | -2.58135 | 20841 ft | 448 kts | 49° |
| 2026-05-06 00:13 | 54.15822 | -2.54038 | 20421 ft | 446 kts | 49° |
| 2026-05-06 00:13 | 54.17785 | -2.49953 | 20005 ft | 443 kts | 49° |
| 2026-05-06 00:13 | 54.19734 | -2.45889 | 19588 ft | 442 kts | 49° |
| 2026-05-06 00:13 | 54.21674 | -2.41837 | 19181 ft | 440 kts | 49° |
| 2026-05-06 00:14 | 54.23603 | -2.37801 | 18776 ft | 438 kts | 49° |
| 2026-05-06 00:14 | 54.25528 | -2.33767 | 18355 ft | 437 kts | 49° |
| 2026-05-06 00:14 | 54.27456 | -2.29755 | 17878 ft | 433 kts | 46° |
| 2026-05-06 00:14 | 54.29651 | -2.26380 | 17307 ft | 418 kts | 32° |
| 2026-05-06 00:15 | 54.32135 | -2.23984 | 16384 ft | 405 kts | 21° |
| 2026-05-06 00:15 | 54.34762 | -2.22356 | 15296 ft | 399 kts | 12° |
| 2026-05-06 00:15 | 54.37439 | -2.21201 | 14284 ft | 394 kts | 12° |
| 2026-05-06 00:15 | 54.40072 | -2.20052 | 13298 ft | 387 kts | 12° |
| 2026-05-06 00:16 | 54.42635 | -2.18913 | 12776 ft | 370 kts | 12° |
| 2026-05-06 00:16 | 54.45046 | -2.17829 | 12566 ft | 347 kts | 12° |
| 2026-05-06 00:16 | 54.47307 | -2.16805 | 12396 ft | 326 kts | 12° |
| 2026-05-06 00:16 | 54.49412 | -2.15850 | 12249 ft | 309 kts | 12° |
| 2026-05-06 00:17 | 54.51497 | -2.14904 | 12142 ft | 306 kts | 12° |
| 2026-05-06 00:17 | 54.53513 | -2.13990 | 12034 ft | 301 kts | 12° |
| 2026-05-06 00:17 | 54.55531 | -2.13072 | 11617 ft | 298 kts | 12° |
| 2026-05-06 00:17 | 54.57527 | -2.12162 | 11049 ft | 297 kts | 12° |
| 2026-05-06 00:18 | 54.59526 | -2.11250 | 10013 ft | 297 kts | 13° |
| 2026-05-06 00:18 | 54.61542 | -2.10328 | 9756 ft | 298 kts | 12° |
| 2026-05-06 00:18 | 54.63512 | -2.09422 | 9362 ft | 289 kts | 12° |
| 2026-05-06 00:18 | 54.65448 | -2.08531 | 8835 ft | 286 kts | 12° |
| 2026-05-06 00:19 | 54.67358 | -2.07653 | 8301 ft | 284 kts | 13° |
| 2026-05-06 00:19 | 54.69256 | -2.06779 | 7811 ft | 280 kts | 12° |
| 2026-05-06 00:19 | 54.71126 | -2.05918 | 7350 ft | 276 kts | 13° |
| 2026-05-06 00:19 | 54.72981 | -2.05063 | 6823 ft | 275 kts | 13° |
| 2026-05-06 00:20 | 54.74817 | -2.04215 | 6419 ft | 270 kts | 13° |
| 2026-05-06 00:20 | 54.76576 | -2.03401 | 6284 ft | 254 kts | 13° |
| 2026-05-06 00:20 | 54.78235 | -2.02632 | 6131 ft | 240 kts | 13° |
| 2026-05-06 00:20 | 54.79836 | -2.01891 | 5786 ft | 236 kts | 13° |
| 2026-05-06 00:21 | 54.81416 | -2.01160 | 5432 ft | 235 kts | 13° |
| 2026-05-06 00:21 | 54.82982 | -2.00434 | 5096 ft | 231 kts | 13° |
| 2026-05-06 00:21 | 54.84540 | -1.99711 | 4689 ft | 232 kts | 14° |
| 2026-05-06 00:21 | 54.86066 | -1.99002 | 4522 ft | 220 kts | 14° |
| 2026-05-06 00:22 | 54.87508 | -1.98330 | 4258 ft | 211 kts | 14° |
| 2026-05-06 00:22 | 54.88914 | -1.97675 | 4076 ft | 207 kts | 14° |
| 2026-05-06 00:22 | 54.90310 | -1.97026 | 3952 ft | 208 kts | 14° |
| 2026-05-06 00:22 | 54.91711 | -1.96374 | 3827 ft | 210 kts | 14° |
| 2026-05-06 00:23 | 54.93112 | -1.95721 | 3600 ft | 209 kts | 15° |
| 2026-05-06 00:23 | 54.94496 | -1.95077 | 3377 ft | 203 kts | 15° |
| 2026-05-06 00:23 | 54.95828 | -1.94457 | 3168 ft | 194 kts | 15° |
| 2026-05-06 00:23 | 54.97026 | -1.93550 | 2911 ft | 186 kts | 44° |
| 2026-05-06 00:24 | 54.97661 | -1.91696 | 2803 ft | 177 kts | 61° |
| 2026-05-06 00:24 | 54.98286 | -1.89851 | 2600 ft | 176 kts | 58° |
| 2026-05-06 00:24 | 54.98811 | -1.87931 | 2348 ft | 175 kts | 64° |
| 2026-05-06 00:24 | 54.99302 | -1.86012 | 2250 ft | 173 kts | 63° |
| 2026-05-06 00:25 | 54.99788 | -1.84151 | 2065 ft | 165 kts | 62° |
| 2026-05-06 00:25 | 55.00258 | -1.82365 | 1842 ft | 159 kts | 62° |
| 2026-05-06 00:25 | 55.00708 | -1.80657 | 1659 ft | 152 kts | 62° |
| 2026-05-06 00:25 | 55.01146 | -1.78995 | 1438 ft | 150 kts | 62° |
| 2026-05-06 00:26 | 55.01574 | -1.77386 | 1232 ft | 143 kts | 61° |
| 2026-05-06 00:26 | 55.01981 | -1.75818 | 979 ft | 142 kts | 62° |
| 2026-05-06 00:26 | 55.02401 | -1.74247 | 769 ft | 142 kts | 61° |
| 2026-05-06 00:26 | 55.02819 | -1.72693 | 585 ft | 142 kts | 60° |
| 2026-05-06 00:27 | 55.03218 | -1.71145 | 384 ft | 137 kts | 61° |
| 2026-05-06 00:27 | 55.03608 | -1.69683 | 258 ft | 116 kts | 65° |
| 2026-05-06 00:27 | 55.03858 | -1.68742 | 250 ft | 55 kts | 65° |
| 2026-05-06 00:27 | 55.03960 | -1.68402 | 248 ft | 24 kts | 42° |
| 2026-05-06 00:28 | 55.04093 | -1.68239 | 247 ft | 23 kts | 26° |
| 2026-05-06 00:28 | 55.04146 | -1.68333 | 247 ft | 11 kts | 245° |
| 2026-05-06 00:28 | 55.04116 | -1.68448 | 247 ft | 10 kts | 245° |
| 2026-05-06 00:28 | 55.04088 | -1.68559 | 248 ft | 10 kts | 246° |
| 2026-05-06 00:29 | 55.04060 | -1.68669 | 248 ft | 10 kts | 246° |
| 2026-05-06 00:29 | 55.04028 | -1.68784 | 249 ft | 15 kts | 242° |
| 2026-05-06 00:29 | 55.03969 | -1.69003 | 251 ft | 25 kts | 245° |
| 2026-05-06 00:29 | 55.03888 | -1.69307 | 253 ft | 28 kts | 245° |
| 2026-05-06 00:30 | 55.03815 | -1.69605 | 256 ft | 26 kts | 253° |
| 2026-05-06 00:30 | 55.03780 | -1.69901 | 259 ft | 24 kts | 264° |
| 2026-05-06 00:30 | 55.03775 | -1.70169 | 262 ft | 15 kts | 275° |
| 2026-05-06 00:30 | 55.03783 | -1.70344 | 266 ft | 14 kts | 272° |
| 2026-05-06 00:31 | 55.03726 | -1.70428 | 266 ft | 9 kts | 189° |
| 2026-05-06 00:31 | 55.03701 | -1.70516 | 266 ft | 9 kts | 259° |
| 2026-05-06 00:31 | 55.03698 | -1.70557 | 266 ft | 0 kts | 263° |